Time;durP1;ratioP1;P1;durP2;ratioP2;P2;SDS_P1;SDS_P2;PMS_P1;PMS_P2;Temp;Humidity;BMP_temperature;BMP_pressure;BME280_temperature;BME280_humidity;BME280_pressure;Samples;Min_cycle;Max_cycle;Signal;HPM_P1;HPM_P2
2023/07/24 00:01:48;;;;;;;8.52;4.93;;;;;;;20.09;52.14;97519.56;5072858;28;20123;-71
2023/07/24 00:04:13;;;;;;;6.95;4.70;;;;;;;20.02;52.11;97511.03;5064813;28;20036;-73
2023/07/24 00:06:39;;;;;;;9.15;4.10;;;;;;;19.94;52.51;97501.69;5063972;28;20123;-75
2023/07/24 00:09:04;;;;;;;6.07;4.28;;;;;;;19.85;52.79;97535.63;5075871;28;20123;-76
2023/07/24 00:11:29;;;;;;;7.25;4.28;;;;;;;19.50;54.10;97550.34;5082104;28;20447;-76
2023/07/24 00:13:55;;;;;;;10.10;4.32;;;;;;;19.29;55.04;97556.34;5065015;28;20029;-76
2023/07/24 00:16:20;;;;;;;8.05;5.00;;;;;;;19.36;54.57;97552.38;5073344;28;20524;-75
2023/07/24 00:18:46;;;;;;;13.05;4.88;;;;;;;19.90;53.26;97551.84;5078101;28;20404;-75
2023/07/24 00:21:13;;;;;;;8.00;4.32;;;;;;;19.93;52.23;97548.47;5080486;28;20041;-75
2023/07/24 00:23:38;;;;;;;8.48;5.10;;;;;;;19.90;52.11;97543.66;5084719;28;20490;-76
2023/07/24 00:26:04;;;;;;;7.30;4.38;;;;;;;20.00;52.16;97533.19;5071253;28;20101;-76
2023/07/24 00:28:29;;;;;;;7.60;4.60;;;;;;;19.99;51.30;97536.25;5055982;28;20032;-74
2023/07/24 00:30:55;;;;;;;8.60;4.43;;;;;;;20.01;51.56;97539.47;5081832;28;20040;-73
2023/07/24 00:33:21;;;;;;;7.57;4.43;;;;;;;19.99;51.66;97542.53;5060820;28;20604;-73
2023/07/24 00:35:47;;;;;;;7.00;4.47;;;;;;;20.01;51.59;97550.41;5060162;28;20037;-73
2023/07/24 00:38:12;;;;;;;8.50;4.70;;;;;;;20.08;51.35;97550.75;5088570;28;20031;-73
2023/07/24 00:40:38;;;;;;;10.07;4.93;;;;;;;20.08;51.68;97539.81;5080218;28;20134;-73
2023/07/24 00:43:04;;;;;;;10.10;5.13;;;;;;;20.14;51.45;97548.66;5071786;28;20047;-74
2023/07/24 00:45:29;;;;;;;9.15;5.32;;;;;;;20.02;51.50;97541.09;5092292;28;20482;-74
2023/07/24 00:47:55;;;;;;;7.30;4.70;;;;;;;19.96;51.74;97547.84;5060496;28;20632;-73
2023/07/24 00:50:20;;;;;;;6.57;4.60;;;;;;;19.91;51.41;97542.53;5080350;28;20169;-73
2023/07/24 00:52:46;;;;;;;6.95;4.60;;;;;;;19.95;51.92;97540.78;5084193;28;20074;-74
2023/07/24 00:55:13;;;;;;;8.80;5.18;;;;;;;19.97;51.53;97524.84;5081348;28;20402;-75
2023/07/24 00:57:40;;;;;;;7.93;5.25;;;;;;;19.84;51.84;97525.78;5044641;28;20060;-74
2023/07/24 01:00:07;;;;;;;7.65;4.40;;;;;;;20.05;51.43;97520.53;5043364;28;20032;-76
2023/07/24 01:02:32;;;;;;;9.95;4.25;;;;;;;19.95;51.65;97513.44;5084320;28;20547;-76
2023/07/24 01:04:58;;;;;;;8.57;4.60;;;;;;;20.06;51.55;97514.72;5064470;28;20040;-75
2023/07/24 01:07:24;;;;;;;9.02;4.65;;;;;;;19.89;51.91;97498.31;5060453;28;20089;-75
2023/07/24 01:09:50;;;;;;;8.82;4.60;;;;;;;19.97;51.71;97486.59;5060379;28;20044;-76
2023/07/24 01:12:32;;;;;;;8.45;4.57;;;;;;;19.86;52.37;97493.50;5061412;28;20036;-75
2023/07/24 01:15:07;;;;;;;7.57;4.22;;;;;;;19.93;52.14;97485.59;5067250;28;20075;-75
2023/07/24 01:17:34;;;;;;;10.80;5.00;;;;;;;19.92;52.27;97476.63;5050356;28;20074;-76
2023/07/24 01:20:02;;;;;;;8.10;4.60;;;;;;;19.95;52.21;97469.72;5041908;28;20283;-75
2023/07/24 01:22:28;;;;;;;12.52;5.20;;;;;;;19.82;52.62;97476.13;5064429;28;20131;-75
2023/07/24 01:24:59;;;;;;;7.68;4.93;;;;;;;19.84;52.77;97473.88;5052873;28;20071;-75
2023/07/24 01:27:25;;;;;;;10.48;5.32;;;;;;;19.79;53.09;97471.31;5082288;28;20082;-75
2023/07/24 01:29:50;;;;;;;8.32;4.55;;;;;;;20.06;52.97;97462.78;5067055;28;20036;-75
2023/07/24 01:32:16;;;;;;;8.73;4.70;;;;;;;19.97;52.86;97456.50;5061818;28;20032;-75
2023/07/24 01:34:42;;;;;;;8.23;4.65;;;;;;;19.96;53.25;97449.44;5076538;28;20119;-75
2023/07/24 01:37:08;;;;;;;9.68;4.88;;;;;;;19.79;54.23;97438.53;5061911;28;20037;-75
2023/07/24 01:39:34;;;;;;;8.05;4.68;;;;;;;19.68;54.99;97450.88;5061727;28;20020;-76
2023/07/24 01:41:59;;;;;;;9.55;5.03;;;;;;;19.77;54.81;97454.41;5077998;28;20055;-76
2023/07/24 01:44:25;;;;;;;7.20;4.60;;;;;;;19.55;55.59;97460.03;5055353;28;20487;-75
2023/07/24 01:46:50;;;;;;;9.48;4.68;;;;;;;19.59;56.16;97466.47;5066141;28;20044;-77
2023/07/24 01:49:15;;;;;;;8.20;5.30;;;;;;;19.60;56.02;97462.63;5076512;28;20100;-77
2023/07/24 01:51:43;;;;;;;8.93;4.90;;;;;;;19.47;56.47;97452.63;5082263;28;20033;-76
2023/07/24 01:54:08;;;;;;;8.45;5.28;;;;;;;19.65;56.18;97449.59;5084517;28;20038;-76
2023/07/24 01:56:35;;;;;;;10.70;5.18;;;;;;;19.62;57.11;97454.91;5078237;28;20123;-76
2023/07/24 01:59:01;;;;;;;8.50;4.85;;;;;;;19.50;57.06;97455.53;5040124;28;20451;-74
2023/07/24 02:01:26;;;;;;;7.70;4.75;;;;;;;19.26;58.21;97449.69;5070313;28;20032;-73
2023/07/24 02:03:52;;;;;;;9.70;5.28;;;;;;;19.18;58.83;97445.03;5070673;28;20056;-73
2023/07/24 02:06:17;;;;;;;11.30;5.50;;;;;;;19.30;59.41;97447.91;5060936;28;20498;-73
2023/07/24 02:08:48;;;;;;;9.30;5.43;;;;;;;19.21;59.68;97439.72;5075140;28;20108;-72
2023/07/24 02:11:15;;;;;;;7.88;5.00;;;;;;;19.12;60.10;97438.09;5078381;28;20695;-72
2023/07/24 02:13:40;;;;;;;8.93;5.15;;;;;;;19.12;60.42;97441.63;5055858;28;20028;-72
2023/07/24 02:16:06;;;;;;;8.82;5.28;;;;;;;19.00;61.04;97433.25;5061414;28;20545;-75
2023/07/24 02:18:31;;;;;;;8.80;5.53;;;;;;;18.95;62.01;97436.13;5083036;28;20024;-75
2023/07/24 02:20:56;;;;;;;8.55;5.20;;;;;;;18.88;62.90;97435.00;5077322;28;20031;-75
2023/07/24 02:23:23;;;;;;;8.90;4.80;;;;;;;18.76;62.94;97438.31;5075855;28;20077;-76
2023/07/24 02:25:53;;;;;;;8.82;4.85;;;;;;;18.68;63.57;97441.81;5061445;28;20032;-75
2023/07/24 02:28:18;;;;;;;9.57;5.30;;;;;;;18.63;64.44;97441.94;5058180;28;20037;-75
2023/07/24 02:30:46;;;;;;;9.18;5.07;;;;;;;18.54;64.74;97431.00;5060375;28;20086;-76
2023/07/24 02:33:12;;;;;;;8.43;4.80;;;;;;;18.40;65.74;97434.91;5062092;28;20113;-74
2023/07/24 02:35:41;;;;;;;9.45;5.95;;;;;;;18.47;65.39;97435.28;5061811;28;20060;-76
2023/07/24 02:38:07;;;;;;;9.45;5.38;;;;;;;18.45;66.00;97440.22;5059247;28;20024;-74
2023/07/24 02:40:32;;;;;;;11.90;5.38;;;;;;;18.35;67.08;97437.75;5079631;28;20455;-75
2023/07/24 02:42:58;;;;;;;7.35;4.68;;;;;;;18.14;68.34;97428.50;5065869;28;20136;-75
2023/07/24 02:45:23;;;;;;;8.73;4.85;;;;;;;18.22;68.14;97422.31;5061999;28;20040;-75
2023/07/24 02:47:49;;;;;;;10.35;4.88;;;;;;;18.14;69.28;97423.03;5059169;28;20024;-75
2023/07/24 02:50:14;;;;;;;11.02;5.53;;;;;;;18.09;69.70;97423.97;5059714;28;20033;-75
2023/07/24 02:52:40;;;;;;;11.23;5.00;;;;;;;17.88;70.94;97423.69;5054120;28;20024;-75
2023/07/24 02:55:05;;;;;;;10.75;4.68;;;;;;;17.83;71.62;97426.53;5061574;28;20037;-74
2023/07/24 02:57:31;;;;;;;8.52;4.93;;;;;;;17.86;71.79;97431.38;5086523;28;20047;-75
2023/07/24 02:59:57;;;;;;;11.10;4.72;;;;;;;17.86;72.00;97423.19;5081828;28;20119;-74
2023/07/24 03:02:22;;;;;;;9.90;5.05;;;;;;;17.83;71.95;97412.09;5061910;28;20132;-74
2023/07/24 03:04:48;;;;;;;9.10;5.15;;;;;;;17.88;72.33;97418.25;5083539;28;20045;-72
2023/07/24 03:07:13;;;;;;;9.27;5.25;;;;;;;17.72;73.09;97422.44;5069331;28;20028;-72
2023/07/24 03:09:38;;;;;;;9.20;5.00;;;;;;;17.77;73.23;97416.06;5048048;28;20037;-71
2023/07/24 03:12:04;;;;;;;8.68;5.00;;;;;;;17.69;73.60;97425.00;5076825;28;20467;-72
2023/07/24 03:14:29;;;;;;;8.82;4.90;;;;;;;17.66;73.79;97431.88;5080948;28;20035;-72
2023/07/24 03:16:55;;;;;;;10.60;5.30;;;;;;;17.66;73.86;97428.34;5077195;28;20029;-72
2023/07/24 03:19:20;;;;;;;11.85;4.93;;;;;;;17.54;74.49;97434.31;5080549;28;20559;-72
2023/07/24 03:21:46;;;;;;;8.60;5.05;;;;;;;17.50;74.17;97427.88;5092301;28;20162;-72
2023/07/24 03:24:11;;;;;;;11.32;5.20;;;;;;;17.35;75.22;97424.66;5083376;28;20036;-72
2023/07/24 03:26:37;;;;;;;8.55;5.55;;;;;;;17.46;74.84;97426.03;5073340;28;20020;-73
2023/07/24 03:29:02;;;;;;;9.27;5.10;;;;;;;17.54;74.57;97433.50;5052079;28;20486;-72
2023/07/24 03:31:27;;;;;;;10.73;5.10;;;;;;;17.59;74.46;97426.03;5064544;28;20131;-72
2023/07/24 03:33:53;;;;;;;7.97;4.40;;;;;;;17.75;74.15;97427.28;5071683;28;20040;-72
2023/07/24 03:36:19;;;;;;;6.45;3.95;;;;;;;17.86;73.51;97428.66;5070880;28;20020;-72
2023/07/24 03:38:44;;;;;;;6.32;4.07;;;;;;;17.78;74.00;97429.38;5063279;28;20539;-73
2023/07/24 03:41:10;;;;;;;6.88;4.55;;;;;;;17.66;74.43;97437.31;5067042;28;20518;-74
2023/07/24 03:43:35;;;;;;;8.60;5.32;;;;;;;17.56;74.57;97429.38;5071616;28;20123;-72
2023/07/24 03:46:01;;;;;;;10.63;6.53;;;;;;;17.72;73.90;97436.06;5068521;28;20020;-73
2023/07/24 03:48:26;;;;;;;8.98;5.95;;;;;;;17.56;74.84;97436.72;5080335;28;20046;-74
2023/07/24 03:50:58;;;;;;;10.55;5.90;;;;;;;17.65;74.57;97430.25;5061515;28;20154;-75
2023/07/24 03:53:24;;;;;;;8.68;6.13;;;;;;;17.68;74.67;97418.75;5082779;28;20033;-76
2023/07/24 03:55:49;;;;;;;10.63;6.03;;;;;;;17.62;74.77;97425.41;5085272;28;20024;-75
2023/07/24 03:58:15;;;;;;;9.80;6.13;;;;;;;17.66;74.57;97418.25;5063612;28;20118;-76
2023/07/24 04:00:40;;;;;;;9.55;5.90;;;;;;;17.71;74.52;97411.88;5059472;28;20029;-76
2023/07/24 04:03:06;;;;;;;9.07;5.90;;;;;;;17.65;74.88;97413.91;5092051;28;20402;-75
2023/07/24 04:05:31;;;;;;;9.82;6.47;;;;;;;17.57;74.97;97394.78;5043003;28;20020;-75
2023/07/24 04:07:57;;;;;;;9.43;6.32;;;;;;;17.37;75.64;97379.69;5083269;28;20059;-76
2023/07/24 04:10:22;;;;;;;10.20;6.57;;;;;;;17.67;74.60;97373.53;5067940;28;20123;-74
2023/07/24 04:12:48;;;;;;;10.55;6.38;;;;;;;17.88;74.63;97380.09;5080784;28;20516;-75
2023/07/24 04:15:13;;;;;;;9.73;6.40;;;;;;;18.06;74.00;97369.31;5079251;28;20025;-75
2023/07/24 04:17:40;;;;;;;8.55;5.88;;;;;;;18.21;73.08;97366.16;5063188;28;20465;-75
2023/07/24 04:20:06;;;;;;;10.18;5.88;;;;;;;18.40;72.43;97342.19;5067574;28;20027;-75
2023/07/24 04:22:31;;;;;;;9.55;5.95;;;;;;;18.55;71.83;97342.59;5080906;28;20478;-75
2023/07/24 04:24:57;;;;;;;10.05;5.70;;;;;;;18.85;70.99;97332.75;5077398;28;20024;-74
2023/07/24 04:27:22;;;;;;;8.38;5.75;;;;;;;18.93;70.51;97329.19;5084245;28;20044;-75
2023/07/24 04:29:47;;;;;;;9.50;5.32;;;;;;;18.84;71.36;97338.50;5050868;28;20028;-75
2023/07/24 04:32:13;;;;;;;8.68;6.10;;;;;;;18.48;72.70;97344.19;5078982;28;20410;-75
2023/07/24 04:34:38;;;;;;;10.40;6.35;;;;;;;18.17;74.10;97346.13;5058665;28;20028;-76
2023/07/24 04:37:04;;;;;;;8.45;5.65;;;;;;;18.32;73.77;97356.63;5063433;28;20025;-75
2023/07/24 04:39:29;;;;;;;10.63;6.30;;;;;;;18.78;72.27;97348.78;5050826;28;20028;-75
2023/07/24 04:41:54;;;;;;;9.80;6.53;;;;;;;18.97;71.42;97341.09;5078640;28;20110;-76
2023/07/24 04:44:20;;;;;;;9.00;6.20;;;;;;;18.91;71.27;97356.00;5078488;28;20020;-76
2023/07/24 04:46:45;;;;;;;9.68;5.90;;;;;;;18.79;71.69;97376.84;5063338;28;20501;-75
2023/07/24 04:49:11;;;;;;;10.15;6.78;;;;;;;18.70;72.39;97379.53;5080795;28;20081;-76
2023/07/24 04:51:36;;;;;;;9.52;5.90;;;;;;;18.53;73.21;97393.94;5061117;28;20043;-75
2023/07/24 04:54:02;;;;;;;10.68;6.13;;;;;;;18.63;73.42;97396.38;5076656;28;20081;-76
2023/07/24 04:56:28;;;;;;;11.20;6.90;;;;;;;18.77;73.71;97374.44;5084121;28;20040;-76
2023/07/24 04:58:53;;;;;;;11.63;7.13;;;;;;;18.78;73.55;97383.44;5083858;28;20111;-76
2023/07/24 05:01:19;;;;;;;12.10;7.47;;;;;;;18.61;74.08;97408.72;5076912;28;20111;-75
2023/07/24 05:03:44;;;;;;;9.50;6.57;;;;;;;18.51;75.04;97409.00;5077519;28;20620;-75
2023/07/24 05:06:10;;;;;;;10.40;6.60;;;;;;;18.51;75.33;97419.91;5084872;28;20048;-75
2023/07/24 05:08:35;;;;;;;10.65;6.70;;;;;;;18.73;74.93;97399.94;5066369;28;20430;-75
2023/07/24 05:11:00;;;;;;;10.45;6.88;;;;;;;18.62;75.89;97400.22;5060266;28;20036;-75
2023/07/24 05:13:26;;;;;;;10.52;7.03;;;;;;;18.48;76.72;97393.28;5077386;28;20035;-76
2023/07/24 05:15:51;;;;;;;11.68;7.40;;;;;;;18.62;76.31;97388.53;5063566;28;20036;-77
2023/07/24 05:18:17;;;;;;;15.00;7.55;;;;;;;18.61;76.48;97376.00;5049459;28;20041;-76
2023/07/24 05:20:45;;;;;;;12.60;7.43;;;;;;;18.62;76.28;97366.69;5062280;28;20098;-75
2023/07/24 05:23:10;;;;;;;11.52;7.07;;;;;;;18.78;76.71;97354.22;5065762;28;20028;-76
2023/07/24 05:25:36;;;;;;;15.07;7.60;;;;;;;18.97;76.40;97365.66;5053266;28;20032;-75
2023/07/24 05:28:01;;;;;;;12.82;7.55;;;;;;;19.09;75.60;97365.81;5070200;28;20020;-76
2023/07/24 05:30:27;;;;;;;13.93;7.63;;;;;;;19.14;75.43;97359.41;5077123;28;20039;-76
2023/07/24 05:32:52;;;;;;;12.63;7.10;;;;;;;19.10;75.65;97355.72;5076590;28;20086;-76
2023/07/24 05:35:17;;;;;;;10.35;6.53;;;;;;;19.04;75.92;97341.41;5063038;28;20045;-76
2023/07/24 05:37:43;;;;;;;10.13;7.32;;;;;;;19.09;75.82;97360.38;5050356;28;20025;-77
2023/07/24 05:40:08;;;;;;;12.57;7.97;;;;;;;18.95;76.89;97343.31;5083236;28;20041;-76
2023/07/24 05:42:38;;;;;;;13.27;8.10;;;;;;;19.52;74.85;97330.38;5069909;28;20029;-78
2023/07/24 05:45:05;;;;;;;10.98;7.60;;;;;;;19.85;73.59;97330.66;5084536;28;20478;-77
2023/07/24 05:47:31;;;;;;;10.82;6.82;;;;;;;19.86;73.78;97335.00;5050227;28;20050;-76
2023/07/24 05:49:56;;;;;;;14.23;8.55;;;;;;;19.99;73.14;97344.91;5043653;28;20479;-75
2023/07/24 05:52:22;;;;;;;12.07;7.45;;;;;;;19.98;73.81;97337.84;5056354;28;20021;-76
2023/07/24 05:54:47;;;;;;;10.73;6.15;;;;;;;19.88;73.71;97343.66;5063086;28;20143;-76
2023/07/24 05:57:12;;;;;;;18.02;6.85;;;;;;;19.72;74.62;97351.56;5076666;28;20051;-76
2023/07/24 05:59:38;;;;;;;12.05;7.68;;;;;;;20.08;73.36;97342.97;5062618;28;20082;-76
2023/07/24 06:02:03;;;;;;;10.25;7.07;;;;;;;20.08;73.72;97336.69;5078059;28;20024;-76
2023/07/24 06:04:28;;;;;;;11.52;7.10;;;;;;;20.32;72.23;97326.84;5063224;28;20041;-76
2023/07/24 06:06:54;;;;;;;11.43;7.22;;;;;;;20.37;71.76;97307.50;5042498;28;20087;-77
2023/07/24 06:09:19;;;;;;;10.40;6.55;;;;;;;20.62;71.43;97313.97;5083028;28;20123;-76
2023/07/24 06:11:45;;;;;;;12.00;7.15;;;;;;;20.50;72.17;97331.09;5069651;28;20035;-76
2023/07/24 06:14:10;;;;;;;12.10;7.18;;;;;;;20.82;70.36;97313.19;5075548;28;20051;-76
2023/07/24 06:16:35;;;;;;;8.98;5.95;;;;;;;20.76;71.27;97319.19;5076859;28;20037;-77
2023/07/24 06:19:01;;;;;;;9.40;6.85;;;;;;;20.96;70.79;97321.94;5082980;28;20048;-76
2023/07/24 06:21:26;;;;;;;8.70;6.28;;;;;;;20.70;71.55;97321.31;5082620;28;20028;-76
2023/07/24 06:23:51;;;;;;;10.27;6.57;;;;;;;20.80;72.11;97331.06;5049819;28;20040;-77
2023/07/24 06:26:17;;;;;;;9.80;6.45;;;;;;;20.77;71.92;97331.75;5049849;28;20043;-77
2023/07/24 06:28:43;;;;;;;14.65;11.77;;;;;;;20.85;71.61;97322.66;5076634;28;20032;-76
2023/07/24 06:31:08;;;;;;;13.40;9.57;;;;;;;20.83;71.50;97320.28;5044340;28;20128;-77
2023/07/24 06:33:33;;;;;;;16.13;10.20;;;;;;;21.00;71.23;97324.84;5066793;28;20501;-76
2023/07/24 06:35:59;;;;;;;13.52;9.80;;;;;;;20.60;72.50;97328.00;5080723;28;20027;-76
2023/07/24 06:38:24;;;;;;;14.63;9.10;;;;;;;20.68;72.58;97327.13;5070206;28;20037;-77
2023/07/24 06:40:50;;;;;;;14.95;10.65;;;;;;;20.47;73.85;97319.97;5056940;28;20479;-78
2023/07/24 06:43:15;;;;;;;16.05;10.18;;;;;;;20.58;73.43;97313.03;5062408;28;20039;-77
2023/07/24 06:45:41;;;;;;;15.70;8.52;;;;;;;21.34;70.23;97302.69;5081047;28;20043;-78
2023/07/24 06:48:06;;;;;;;15.13;8.80;;;;;;;21.59;69.28;97315.34;5050730;28;20052;-78
2023/07/24 06:50:32;;;;;;;16.67;7.82;;;;;;;21.60;69.37;97322.44;5061293;28;20016;-78
2023/07/24 06:52:57;;;;;;;13.10;7.28;;;;;;;21.74;68.58;97322.94;5068887;28;20029;-78
2023/07/24 06:55:22;;;;;;;17.30;7.90;;;;;;;21.59;68.69;97320.00;5054125;28;20031;-78
2023/07/24 06:57:48;;;;;;;17.05;6.00;;;;;;;21.70;66.47;97313.00;5063390;28;20658;-75
2023/07/24 07:00:14;;;;;;;13.38;7.10;;;;;;;21.65;65.46;97314.00;5047766;28;20054;-76
2023/07/24 07:02:39;;;;;;;9.63;4.90;;;;;;;21.69;65.15;97312.19;5058931;28;20493;-76
2023/07/24 07:05:05;;;;;;;6.85;3.60;;;;;;;21.53;64.55;97322.19;5055820;28;20024;-75
2023/07/24 07:07:30;;;;;;;9.77;4.18;;;;;;;21.94;64.49;97316.63;5087102;28;20128;-76
2023/07/24 07:09:56;;;;;;;8.63;4.88;;;;;;;22.16;64.07;97314.63;5087341;28;20028;-77
2023/07/24 07:12:21;;;;;;;12.88;6.43;;;;;;;22.34;62.66;97324.25;5064475;28;20113;-79
2023/07/24 07:14:46;;;;;;;11.35;6.47;;;;;;;22.27;63.21;97315.78;5046505;28;20478;-78
2023/07/24 07:17:12;;;;;;;17.08;10.80;;;;;;;22.25;61.33;97321.59;5064536;28;20037;-78
2023/07/24 07:19:37;;;;;;;12.15;8.32;;;;;;;22.09;62.83;97317.13;5040930;28;20056;-80
2023/07/24 07:22:03;;;;;;;11.65;7.95;;;;;;;21.85;62.98;97283.03;5062108;28;20039;-78
2023/07/24 07:24:28;;;;;;;11.85;8.85;;;;;;;21.92;62.06;97296.97;5066707;28;20025;-79
2023/07/24 07:26:53;;;;;;;14.40;8.52;;;;;;;22.23;61.21;97296.47;5068469;28;20548;-80
2023/07/24 07:29:19;;;;;;;11.40;8.48;;;;;;;22.28;61.88;97298.19;5044538;28;20020;-79
2023/07/24 07:31:44;;;;;;;15.82;8.80;;;;;;;21.73;63.08;97296.66;5064653;28;20409;-78
2023/07/24 07:34:10;;;;;;;11.55;8.77;;;;;;;22.36;62.13;97294.50;5067027;28;20047;-79
2023/07/24 07:36:35;;;;;;;11.73;8.80;;;;;;;22.23;63.17;97301.13;5089004;28;20115;-77
2023/07/24 07:39:01;;;;;;;11.32;9.02;;;;;;;22.50;62.81;97306.75;5067384;28;20052;-79
2023/07/24 07:41:26;;;;;;;13.48;9.20;;;;;;;21.97;63.16;97288.53;5059735;28;20086;-79
2023/07/24 07:43:52;;;;;;;13.30;8.77;;;;;;;22.22;62.86;97297.59;5054624;28;20020;-78
2023/07/24 07:46:17;;;;;;;12.38;9.35;;;;;;;22.32;63.29;97296.34;5054998;28;20040;-78
2023/07/24 07:48:43;;;;;;;13.95;9.30;;;;;;;21.92;64.07;97288.75;5067677;28;20104;-77
2023/07/24 07:51:08;;;;;;;13.05;8.80;;;;;;;21.92;64.78;97291.50;5062073;28;20127;-77
2023/07/24 07:53:33;;;;;;;12.30;9.20;;;;;;;22.05;64.64;97305.25;5082521;28;20055;-77
2023/07/24 07:55:59;;;;;;;14.60;9.68;;;;;;;22.41;64.20;97289.59;5065286;28;20445;-77
2023/07/24 07:58:25;;;;;;;12.75;9.60;;;;;;;21.95;64.64;97290.81;5072053;28;20035;-77
2023/07/24 08:00:50;;;;;;;13.15;9.15;;;;;;;21.93;65.50;97292.31;5058080;28;20119;-76
2023/07/24 08:03:16;;;;;;;12.63;9.68;;;;;;;22.23;65.60;97279.19;5071121;28;20028;-75
2023/07/24 08:05:41;;;;;;;11.30;8.75;;;;;;;22.11;65.62;97271.75;5086371;28;20067;-75
2023/07/24 08:08:07;;;;;;;12.95;9.02;;;;;;;22.01;65.78;97283.97;5054823;28;20044;-75
2023/07/24 08:10:32;;;;;;;13.52;9.48;;;;;;;22.21;65.37;97287.78;5057511;28;20040;-76
2023/07/24 08:12:57;;;;;;;13.13;8.80;;;;;;;21.94;66.16;97280.19;5044680;28;20035;-77
2023/07/24 08:15:23;;;;;;;12.32;8.82;;;;;;;22.08;66.15;97277.13;5081316;28;20402;-75
2023/07/24 08:17:48;;;;;;;14.45;9.32;;;;;;;22.09;65.44;97284.22;5054557;28;20043;-75
2023/07/24 08:20:13;;;;;;;14.38;9.18;;;;;;;22.23;65.12;97276.44;5070601;28;20441;-75
2023/07/24 08:22:39;;;;;;;14.57;9.75;;;;;;;22.14;65.13;97281.25;5091399;28;20098;-76
2023/07/24 08:25:04;;;;;;;14.60;9.15;;;;;;;21.90;65.69;97282.00;5092562;28;20117;-76
2023/07/24 08:27:30;;;;;;;13.57;9.27;;;;;;;21.76;66.63;97278.75;5083043;28;20107;-75
2023/07/24 08:29:55;;;;;;;12.77;9.60;;;;;;;21.98;66.27;97284.63;5085733;28;20081;-75
2023/07/24 08:32:21;;;;;;;13.02;9.73;;;;;;;22.00;66.68;97281.56;5063151;28;20024;-74
2023/07/24 08:34:46;;;;;;;12.52;9.73;;;;;;;21.98;67.31;97290.13;5059042;28;20411;-74
2023/07/24 08:37:11;;;;;;;14.05;9.52;;;;;;;21.96;67.13;97284.19;5062423;28;20040;-74
2023/07/24 08:39:38;;;;;;;14.18;9.13;;;;;;;22.18;66.81;97287.66;5079627;28;20130;-74
2023/07/24 08:42:13;;;;;;;14.07;9.55;;;;;;;21.79;68.06;97281.63;5079371;28;20027;-74
2023/07/24 08:44:38;;;;;;;14.18;10.27;;;;;;;22.01;67.03;97288.66;5057601;28;20043;-75
2023/07/24 08:47:05;;;;;;;13.18;9.27;;;;;;;22.12;66.31;97284.34;5080614;28;20028;-76
2023/07/24 08:49:32;;;;;;;14.02;9.65;;;;;;;21.95;66.09;97279.84;5044178;28;20067;-75
2023/07/24 08:51:57;;;;;;;13.32;9.35;;;;;;;22.19;65.26;97292.81;5081199;28;20501;-75
2023/07/24 08:54:24;;;;;;;13.13;8.82;;;;;;;22.03;65.11;97302.84;5084036;28;20119;-75
2023/07/24 08:56:51;;;;;;;12.43;9.02;;;;;;;22.11;65.51;97312.09;5070496;28;20479;-74
2023/07/24 08:59:17;;;;;;;14.85;9.57;;;;;;;22.22;64.21;97310.53;5086801;28;20032;-75
2023/07/24 09:01:43;;;;;;;14.82;9.75;;;;;;;22.57;63.96;97300.69;5063814;28;20023;-74
2023/07/24 09:04:09;;;;;;;13.20;9.85;;;;;;;22.95;62.72;97290.16;5076565;28;20036;-75
2023/07/24 09:06:34;;;;;;;15.57;10.25;;;;;;;22.77;63.29;97290.75;5080530;28;20039;-75
2023/07/24 09:08:59;;;;;;;16.70;9.38;;;;;;;23.18;62.27;97283.00;5066904;28;20041;-75
2023/07/24 09:11:25;;;;;;;15.15;9.50;;;;;;;23.17;61.31;97283.38;5063219;28;20028;-75
2023/07/24 09:13:50;;;;;;;12.88;9.27;;;;;;;23.22;61.89;97269.38;5077981;28;20044;-74
2023/07/24 09:16:23;;;;;;;12.38;9.05;;;;;;;23.02;62.25;97278.59;5080865;28;20043;-75
2023/07/24 09:18:51;;;;;;;16.38;9.60;;;;;;;23.01;62.95;97283.28;5063533;28;20095;-74
2023/07/24 09:21:27;;;;;;;13.07;9.10;;;;;;;22.51;63.29;97291.91;5064402;28;20504;-74
2023/07/24 09:23:53;;;;;;;16.25;10.25;;;;;;;22.62;63.33;97281.28;5051327;28;20056;-75
2023/07/24 09:26:18;;;;;;;16.88;9.63;;;;;;;22.87;62.48;97271.84;5066174;28;20054;-75
2023/07/24 09:28:51;;;;;;;14.57;9.98;;;;;;;22.76;62.72;97265.25;5076725;28;20036;-75
2023/07/24 09:31:17;;;;;;;13.30;9.07;;;;;;;22.32;63.80;97271.66;5076716;28;20037;-75
2023/07/24 09:33:46;;;;;;;13.43;10.07;;;;;;;22.08;64.80;97282.63;5083936;28;20025;-75
2023/07/24 09:36:12;;;;;;;15.63;10.55;;;;;;;21.78;65.95;97296.47;5083567;28;20039;-75
2023/07/24 09:38:39;;;;;;;13.23;9.65;;;;;;;21.15;68.54;97327.00;5077260;28;20036;-75
2023/07/24 09:41:05;;;;;;;17.88;10.32;;;;;;;20.98;70.55;97349.00;5077254;28;20130;-74
2023/07/24 09:43:31;;;;;;;19.48;10.85;;;;;;;20.41;75.66;97370.56;5077233;28;20115;-74
2023/07/24 09:45:57;;;;;;;17.10;11.52;;;;;;;20.00;79.82;97401.19;5056844;28;20438;-74
2023/07/24 09:48:24;;;;;;;19.52;11.48;;;;;;;19.69;80.61;97423.25;5062370;28;20039;-74
2023/07/24 09:50:54;;;;;;;20.23;12.00;;;;;;;19.52;82.16;97384.19;5060525;28;20100;-74
2023/07/24 09:53:28;;;;;;;17.98;12.75;;;;;;;19.79;84.04;97381.91;5077833;28;20028;-74
2023/07/24 09:55:58;;;;;;;18.80;13.20;;;;;;;20.04;83.58;97361.16;5077530;28;20123;-74
2023/07/24 09:58:24;;;;;;;22.27;13.18;;;;;;;20.74;83.93;97324.19;5081414;28;20029;-74
2023/07/24 10:00:50;;;;;;;20.45;13.48;;;;;;;21.13;82.63;97308.19;5083212;28;20483;-73
2023/07/24 10:03:16;;;;;;;20.08;12.75;;;;;;;21.47;81.90;97290.63;5080221;28;20016;-74
2023/07/24 10:05:44;;;;;;;22.00;13.50;;;;;;;21.39;84.19;97286.03;5080506;28;20111;-74
2023/07/24 10:08:10;;;;;;;21.65;13.80;;;;;;;21.30;83.29;97285.31;5064170;28;20029;-74
2023/07/24 10:10:36;;;;;;;21.70;14.32;;;;;;;21.93;83.02;97270.38;5083602;28;20040;-74
2023/07/24 10:13:02;;;;;;;19.02;13.52;;;;;;;22.07;82.46;97264.56;5067212;28;20059;-74
2023/07/24 10:15:28;;;;;;;20.73;13.30;;;;;;;22.71;82.26;97257.25;5080310;28;20079;-75
2023/07/24 10:18:02;;;;;;;19.23;13.48;;;;;;;23.04;79.46;97257.06;5063229;28;20032;-75
2023/07/24 10:20:41;;;;;;;18.88;12.60;;;;;;;22.07;79.93;97253.59;5068050;28;20028;-75
2023/07/24 10:23:11;;;;;;;19.83;13.30;;;;;;;22.12;77.46;97231.44;5069933;28;20127;-75
2023/07/24 10:25:43;;;;;;;18.60;12.63;;;;;;;22.67;80.08;97226.16;5050962;28;20043;-74
2023/07/24 10:28:11;;;;;;;18.40;12.85;;;;;;;22.71;79.52;97232.53;5081300;28;20063;-74
2023/07/24 10:30:41;;;;;;;19.17;12.57;;;;;;;22.52;79.28;97232.34;5076572;28;20030;-74
2023/07/24 10:33:10;;;;;;;19.13;14.23;;;;;;;23.08;76.42;97250.53;5079775;28;20537;-74
2023/07/24 10:35:47;;;;;;;20.65;15.35;;;;;;;23.38;76.29;97248.28;5084121;28;20076;-75
2023/07/24 10:38:15;;;;;;;19.23;14.23;;;;;;;22.98;75.27;97262.00;5091095;28;20115;-74
2023/07/24 10:40:41;;;;;;;20.08;14.95;;;;;;;22.85;77.04;97271.41;5082075;28;20438;-74
2023/07/24 10:43:14;;;;;;;18.65;15.10;;;;;;;22.84;76.06;97272.56;5078752;28;20122;-75
2023/07/24 10:45:47;;;;;;;21.58;14.95;;;;;;;23.02;76.40;97273.91;5080597;28;20045;-75
2023/07/24 10:48:13;;;;;;;19.55;15.43;;;;;;;23.13;77.81;97264.00;5086640;28;20036;-75
2023/07/24 10:50:43;;;;;;;21.58;15.70;;;;;;;23.49;80.39;97270.56;5069545;28;20028;-75
2023/07/24 10:53:09;;;;;;;19.02;14.23;;;;;;;23.58;76.52;97262.94;5079759;28;20035;-75
2023/07/24 10:55:35;;;;;;;19.45;14.52;;;;;;;22.89;74.08;97264.09;5059456;28;20060;-75
2023/07/24 10:58:00;;;;;;;20.73;15.30;;;;;;;23.02;74.57;97260.16;5066170;28;20060;-75
2023/07/24 11:00:27;;;;;;;21.33;15.02;;;;;;;22.44;76.40;97272.47;5069262;28;20051;-74
2023/07/24 11:02:54;;;;;;;20.30;14.30;;;;;;;22.54;75.48;97262.97;5086060;28;20098;-75
2023/07/24 11:05:21;;;;;;;18.52;14.20;;;;;;;22.89;75.65;97258.59;5069554;28;20032;-75
2023/07/24 11:07:46;;;;;;;19.30;14.02;;;;;;;22.77;74.62;97255.88;5065933;28;20046;-74
2023/07/24 11:10:16;;;;;;;17.23;13.02;;;;;;;22.81;75.65;97264.22;5079199;28;20062;-75
2023/07/24 11:12:41;;;;;;;21.63;14.18;;;;;;;23.14;74.58;97249.16;5068432;28;20037;-74
2023/07/24 11:15:07;;;;;;;27.83;13.80;;;;;;;22.97;73.73;97237.63;5067899;28;20024;-75
2023/07/24 11:17:37;;;;;;;23.40;14.18;;;;;;;22.92;75.10;97246.13;5079507;28;20123;-76
2023/07/24 11:20:20;;;;;;;49.35;17.77;;;;;;;23.05;74.48;97253.19;5091634;28;20478;-74
2023/07/24 11:22:46;;;;;;;18.02;12.40;;;;;;;23.05;73.16;97251.25;5082528;28;20031;-75